Factoryville, PA (18419)

11:13 AM EST on February 27, 2015 (GMT -0500)
Sugar Shack | Change Station
CLOSE
Current Station
Personal Weather Station
Location: La Plume, PA
Elevation: 846 ft
Nearby Weather Stations

Elev 846 ft 41.56 °N, 75.77 °W | Updated 2 minutes ago

Clear
Clear
15.7 °F
Feels Like 16 °F
N
3.0
Wind Variable Wind from NE
Gusts 7.0 mph

Today
High -- | Low -- °F
--% Chance of Precip.
Yesterday
High -- | Low -- °F
Precip. -- in
6:41 AM 5:51 PM
Waxing Gibbous, 69% visible
Pressure 30.42 in
Visibility 10.0 miles
Clouds Few 2900 ft
Windchill 16 °F
Dew Point 4 °F
Humidity 58%
Rainfall 0.00 in
Snow Depth Not available.
UV 4 out of 12
Pollen .30 out of 12
Air Quality Not available.
Flu Activity Not available.
METAR KAVP 271554Z 34004KT 10SM FEW029 M09/M17 A3037 RMK AO2 UPB05E14SNE05 SLP301 P0000 T10891167

More Conditions Fewer Conditions

Pressure 30.42 in
Visibility 10.0 miles
Clouds Few 2900 ft
Windchill 16 °F
Dew Point 4 °F
Humidity 58%
Rainfall 0.00 in
Snow Depth Not available.
UV 4 out of 12
Pollen .30 out of 12
Air Quality Not available.
Flu Activity Not available.
METAR KAVP 271554Z 34004KT 10SM FEW029 M09/M17 A3037 RMK AO2 UPB05E14SNE05 SLP301 P0000 T10891167

More Conditions Fewer Conditions

10-Day Weather Forecast

Almanac

Astronomy

Feb. 27, 2015 Rise Set
Actual Time
Civil Twilight
Nautical Twilight
Astronomical Twilight
Moon
Length of Visible Light
Length of Day
Tomorrow will be .
, % of the Moon is Illuminated

Today's Extremes

State Highs State Lows

Community

WunderPhotos

Upload Photos

1,800,727 photos uploaded!

WunderBlogs® & News

Nearby

Air Quality

  Air Quality AQ Index Pollutant
Not available.

Snow Depth

Station Depth Elevation

Earthquake Activity

City Distance Mag. Time & Date
Minimum magnitude displayed is 2.5.

Coastal Water Temperatures

Place Temperature

Nearby Weather Stations